Time;durP1;ratioP1;P1;durP2;ratioP2;P2;SDS_P1;SDS_P2;PMS_P1;PMS_P2;Temp;Humidity;BMP_temperature;BMP_pressure;BME280_temperature;BME280_humidity;BME280_pressure;Samples;Min_cycle;Max_cycle;Signal;HPM_P1;HPM_P2
2024/04/04 00:00:25;;;;;;;0.90;0.35;;;12.80;74.60;;;;;;5067883;28;20024;-68
2024/04/04 00:02:51;;;;;;;1.38;0.60;;;12.90;74.60;;;;;;5072533;28;20047;-68
2024/04/04 00:05:18;;;;;;;2.88;1.02;;;12.90;74.70;;;;;;5071280;28;20032;-69
2024/04/04 00:07:44;;;;;;;1.17;0.88;;;12.90;74.70;;;;;;5076815;28;20479;-68
2024/04/04 00:10:10;;;;;;;4.57;1.02;;;12.80;74.60;;;;;;5077071;28;20491;-63
2024/04/04 00:12:36;;;;;;;3.40;0.40;;;12.80;74.70;;;;;;5076657;28;20058;-63
2024/04/04 00:15:02;;;;;;;0.93;0.93;;;12.70;74.80;;;;;;5068762;28;20081;-63
2024/04/04 00:17:28;;;;;;;6.22;0.93;;;12.70;74.80;;;;;;5069033;28;20025;-63
2024/04/04 00:19:54;;;;;;;1.45;0.75;;;12.60;74.80;;;;;;5069545;28;20384;-63
2024/04/04 00:22:20;;;;;;;1.02;0.50;;;12.60;75.00;;;;;;5071188;28;20039;-63
2024/04/04 00:24:45;;;;;;;1.40;0.70;;;12.50;75.00;;;;;;5070474;28;20115;-63
2024/04/04 00:27:11;;;;;;;0.68;0.40;;;12.50;75.10;;;;;;5064311;28;20166;-62
2024/04/04 00:29:37;;;;;;;0.73;0.60;;;12.40;75.00;;;;;;5057371;28;20189;-63
2024/04/04 00:32:04;;;;;;;0.73;0.73;;;12.40;75.10;;;;;;5069377;28;20038;-63
2024/04/04 00:34:30;;;;;;;0.47;0.40;;;12.40;75.20;;;;;;5069252;28;20122;-63
2024/04/04 00:36:56;;;;;;;0.32;0.32;;;12.30;75.20;;;;;;5066500;28;20076;-63
2024/04/04 00:39:22;;;;;;;2.55;0.60;;;12.30;75.30;;;;;;5063313;28;20021;-63
2024/04/04 00:41:48;;;;;;;1.02;0.40;;;12.30;75.40;;;;;;5068155;28;20475;-63
2024/04/04 00:44:14;;;;;;;0.57;0.57;;;12.30;75.40;;;;;;5070064;28;20021;-63
2024/04/04 00:46:40;;;;;;;0.95;0.40;;;12.30;75.40;;;;;;5067837;28;20039;-68
2024/04/04 00:49:06;;;;;;;0.52;0.47;;;12.30;75.20;;;;;;5069933;28;20025;-63
2024/04/04 00:51:33;;;;;;;2.13;0.65;;;12.20;75.30;;;;;;5068110;28;20491;-69
2024/04/04 00:53:58;;;;;;;0.80;0.77;;;12.20;75.30;;;;;;5069537;28;20651;-69
2024/04/04 00:56:25;;;;;;;3.20;0.50;;;12.20;75.40;;;;;;5071548;28;20086;-69
2024/04/04 00:58:52;;;;;;;0.73;0.63;;;12.20;75.40;;;;;;5068086;28;20070;-69
2024/04/04 01:01:18;;;;;;;0.98;0.40;;;12.20;75.50;;;;;;5068208;28;20070;-68
2024/04/04 01:03:44;;;;;;;1.95;1.05;;;12.10;75.50;;;;;;5069476;28;20489;-69
2024/04/04 01:06:10;;;;;;;2.17;0.32;;;12.10;75.60;;;;;;5065843;28;20025;-69
2024/04/04 01:08:36;;;;;;;0.75;0.25;;;12.10;75.70;;;;;;5061462;28;20028;-63
2024/04/04 01:11:03;;;;;;;1.88;1.17;;;12.00;75.70;;;;;;5068307;28;20053;-63
2024/04/04 01:13:31;;;;;;;2.35;0.50;;;12.00;75.90;;;;;;5065489;28;20098;-63
2024/04/04 01:15:57;;;;;;;0.52;0.52;;;12.00;76.00;;;;;;5063875;28;20032;-63
2024/04/04 01:18:23;;;;;;;1.80;0.40;;;12.10;76.00;;;;;;5068213;28;20055;-63
2024/04/04 01:20:48;;;;;;;1.58;0.40;;;12.10;75.90;;;;;;5068954;28;20021;-63
2024/04/04 01:23:15;;;;;;;0.30;0.30;;;12.10;76.00;;;;;;5070719;28;20036;-68
2024/04/04 01:25:41;;;;;;;0.32;0.30;;;12.10;76.00;;;;;;5070099;28;20410;-69
2024/04/04 01:28:06;;;;;;;0.95;0.60;;;12.10;76.00;;;;;;5066244;28;20036;-68
2024/04/04 01:30:32;;;;;;;0.60;0.30;;;12.10;76.00;;;;;;5064846;28;20028;-69
2024/04/04 01:32:58;;;;;;;0.98;0.30;;;12.20;76.00;;;;;;5059553;28;20058;-68
2024/04/04 01:35:24;;;;;;;1.08;0.70;;;12.20;75.90;;;;;;5056310;28;20040;-68
2024/04/04 01:37:50;;;;;;;0.73;0.30;;;12.20;76.00;;;;;;5067472;28;20585;-68
2024/04/04 01:40:16;;;;;;;9.90;1.25;;;12.30;76.20;;;;;;5067354;28;20471;-68
2024/04/04 01:42:42;;;;;;;1.13;0.80;;;12.30;76.30;;;;;;5061567;28;20029;-68
2024/04/04 01:45:08;;;;;;;2.15;0.43;;;12.20;76.50;;;;;;5066879;28;20024;-68
2024/04/04 01:47:35;;;;;;;1.92;0.65;;;12.20;77.00;;;;;;5065236;28;20040;-69
2024/04/04 01:50:02;;;;;;;2.28;0.55;;;12.10;77.30;;;;;;5056705;28;20182;-69
2024/04/04 01:52:28;;;;;;;0.40;0.40;;;12.10;77.60;;;;;;5065784;28;20116;-69
2024/04/04 01:54:54;;;;;;;1.58;0.57;;;12.10;78.40;;;;;;5064424;28;20039;-69
2024/04/04 01:57:20;;;;;;;1.30;0.70;;;12.00;78.80;;;;;;5066476;28;20033;-70
2024/04/04 01:59:46;;;;;;;2.60;0.60;;;12.00;79.20;;;;;;5058596;28;20067;-69
2024/04/04 02:02:12;;;;;;;1.23;0.40;;;11.90;79.30;;;;;;5065620;28;20084;-69
2024/04/04 02:04:38;;;;;;;0.82;0.30;;;12.00;79.40;;;;;;5062862;28;20059;-69
2024/04/04 02:07:04;;;;;;;0.20;0.20;;;12.00;79.40;;;;;;5072283;28;20111;-68
2024/04/04 02:09:30;;;;;;;4.57;1.42;;;12.10;79.50;;;;;;5070137;28;20455;-67
2024/04/04 02:11:56;;;;;;;0.70;0.32;;;12.10;80.10;;;;;;5072117;28;20130;-68
2024/04/04 02:14:22;;;;;;;1.48;1.38;;;12.10;79.50;;;;;;5073778;28;20060;-68
2024/04/04 02:16:48;;;;;;;0.35;0.35;;;12.20;79.60;;;;;;5078152;28;20020;-64
2024/04/04 02:19:14;;;;;;;5.15;0.57;;;12.20;79.60;;;;;;5071628;28;20028;-63
2024/04/04 02:21:40;;;;;;;1.50;0.50;;;12.20;79.60;;;;;;5074093;28;20512;-63
2024/04/04 02:24:07;;;;;;;0.88;0.68;;;12.30;79.70;;;;;;5072518;28;20478;-64
2024/04/04 02:26:33;;;;;;;0.57;0.28;;;12.30;79.70;;;;;;5068809;28;20016;-63
2024/04/04 02:28:59;;;;;;;0.82;0.40;;;12.30;79.80;;;;;;5071555;28;20039;-63
2024/04/04 02:31:26;;;;;;;1.85;0.30;;;12.30;79.90;;;;;;5072326;28;20507;-68
2024/04/04 02:33:52;;;;;;;7.85;0.88;;;12.30;80.00;;;;;;5071891;28;20395;-68
2024/04/04 02:36:18;;;;;;;0.52;0.52;;;12.30;80.00;;;;;;5069703;28;20021;-69
2024/04/04 02:38:44;;;;;;;0.68;0.65;;;12.30;80.10;;;;;;5071845;28;20025;-68
2024/04/04 02:41:10;;;;;;;0.63;0.47;;;12.30;80.10;;;;;;5074216;28;20403;-69
2024/04/04 02:43:36;;;;;;;0.40;0.30;;;12.40;80.20;;;;;;5073434;28;20046;-68
2024/04/04 02:46:04;;;;;;;2.20;0.68;;;12.30;80.30;;;;;;5071738;28;20033;-69
2024/04/04 02:48:31;;;;;;;2.90;0.70;;;12.40;80.40;;;;;;5069798;28;20029;-63
2024/04/04 02:50:58;;;;;;;4.70;0.70;;;12.30;80.40;;;;;;5073597;28;20052;-63
2024/04/04 02:53:24;;;;;;;5.72;0.40;;;12.40;80.60;;;;;;5064662;28;20487;-63
2024/04/04 02:55:58;;;;;;;0.73;0.28;;;12.40;80.60;;;;;;5069598;28;20111;-63
2024/04/04 02:58:25;;;;;;;2.60;0.38;;;12.40;80.80;;;;;;5072474;28;20027;-63
2024/04/04 03:00:52;;;;;;;1.05;0.35;;;12.30;80.60;;;;;;5071586;28;20029;-68
2024/04/04 03:03:18;;;;;;;0.45;0.40;;;12.30;80.80;;;;;;5061418;28;20029;-69
2024/04/04 03:05:45;;;;;;;0.65;0.65;;;12.30;80.90;;;;;;5074690;28;20059;-68
2024/04/04 03:08:13;;;;;;;1.35;0.52;;;12.30;81.00;;;;;;5073979;28;20041;-69
2024/04/04 03:10:39;;;;;;;1.00;0.20;;;12.30;81.00;;;;;;5070231;28;20456;-68
2024/04/04 03:13:05;;;;;;;1.30;0.60;;;12.30;81.00;;;;;;5069505;28;20032;-68
2024/04/04 03:15:31;;;;;;;0.88;0.40;;;12.30;81.00;;;;;;5069860;28;20024;-63
2024/04/04 03:17:59;;;;;;;0.57;0.30;;;12.30;81.00;;;;;;5069569;28;20094;-63
2024/04/04 03:20:25;;;;;;;1.08;0.50;;;12.30;81.10;;;;;;5070458;28;20074;-63
2024/04/04 03:22:51;;;;;;;0.28;0.28;;;12.30;81.20;;;;;;5071927;28;20346;-63
2024/04/04 03:25:17;;;;;;;0.50;0.40;;;12.30;81.20;;;;;;5069876;28;20107;-64
2024/04/04 03:27:44;;;;;;;0.22;0.22;;;12.30;81.20;;;;;;5067255;28;20040;-61
2024/04/04 03:30:10;;;;;;;0.73;0.32;;;12.30;81.20;;;;;;5070997;28;20012;-62
2024/04/04 03:32:37;;;;;;;2.20;0.57;;;12.30;81.20;;;;;;5066304;28;20032;-64
2024/04/04 03:35:04;;;;;;;0.70;0.70;;;12.30;81.20;;;;;;5068418;28;20028;-64
2024/04/04 03:37:31;;;;;;;0.57;0.40;;;12.30;81.30;;;;;;5065006;28;20024;-64
2024/04/04 03:39:58;;;;;;;1.05;0.57;;;12.30;81.40;;;;;;5063103;28;20736;-63
2024/04/04 03:42:24;;;;;;;1.05;0.43;;;12.30;81.50;;;;;;5059188;28;20040;-64
2024/04/04 03:44:53;;;;;;;1.55;0.30;;;12.20;81.60;;;;;;5064245;28;20033;-69
2024/04/04 03:47:20;;;;;;;1.25;0.90;;;12.20;81.80;;;;;;5069291;28;20086;-68
2024/04/04 03:49:46;;;;;;;0.85;0.80;;;12.20;81.80;;;;;;5068982;28;20028;-68
2024/04/04 03:52:12;;;;;;;3.00;0.40;;;12.20;81.90;;;;;;5059291;28;20095;-68
2024/04/04 03:54:38;;;;;;;0.45;0.40;;;12.20;81.80;;;;;;5066286;28;20132;-68
2024/04/04 03:57:06;;;;;;;1.65;0.45;;;12.20;81.80;;;;;;5066827;28;20563;-68
2024/04/04 03:59:32;;;;;;;1.48;0.70;;;12.20;81.90;;;;;;5057678;28;20021;-64
2024/04/04 04:01:59;;;;;;;0.43;0.40;;;12.20;82.10;;;;;;5064552;28;20025;-63
2024/04/04 04:04:25;;;;;;;0.28;0.25;;;12.20;82.20;;;;;;5067185;28;20386;-64
2024/04/04 04:06:51;;;;;;;0.65;0.47;;;12.10;82.30;;;;;;5064689;28;20033;-64
2024/04/04 04:09:17;;;;;;;0.70;0.40;;;12.10;82.50;;;;;;5073649;28;20032;-64
2024/04/04 04:11:43;;;;;;;0.60;0.50;;;12.10;82.60;;;;;;5078725;28;20746;-64
2024/04/04 04:14:10;;;;;;;0.95;0.65;;;12.10;82.70;;;;;;5068136;28;20148;-64
2024/04/04 04:16:36;;;;;;;1.60;0.52;;;12.20;82.70;;;;;;5067951;28;20462;-64
2024/04/04 04:19:02;;;;;;;1.23;0.65;;;12.20;82.70;;;;;;5065398;28;20035;-64
2024/04/04 04:21:28;;;;;;;2.40;0.77;;;12.20;82.70;;;;;;5063830;28;20631;-63
2024/04/04 04:23:57;;;;;;;0.88;0.30;;;12.20;82.80;;;;;;5073235;28;20041;-68
2024/04/04 04:26:24;;;;;;;0.60;0.57;;;12.20;82.90;;;;;;5069241;28;20025;-68
2024/04/04 04:28:50;;;;;;;1.75;1.10;;;12.20;82.90;;;;;;5068860;28;20021;-68
2024/04/04 04:31:25;;;;;;;4.18;0.60;;;12.20;83.00;;;;;;5060590;28;20044;-63
2024/04/04 04:33:52;;;;;;;1.70;0.57;;;12.30;83.10;;;;;;5074212;28;20020;-63
2024/04/04 04:36:19;;;;;;;2.83;0.43;;;12.30;83.10;;;;;;5060406;28;20060;-64
2024/04/04 04:38:45;;;;;;;1.13;0.88;;;12.30;83.10;;;;;;5071254;28;20483;-63
2024/04/04 04:41:11;;;;;;;3.25;0.47;;;12.30;83.20;;;;;;5066879;28;20043;-68
2024/04/04 04:43:37;;;;;;;0.50;0.40;;;12.30;83.30;;;;;;5069515;28;20033;-69
2024/04/04 04:46:05;;;;;;;1.85;0.68;;;12.30;83.40;;;;;;5061671;28;20032;-69
2024/04/04 04:48:31;;;;;;;0.85;0.60;;;12.20;83.40;;;;;;5067034;28;20395;-68
2024/04/04 04:50:57;;;;;;;0.55;0.55;;;12.20;83.80;;;;;;5066809;28;20040;-68
2024/04/04 04:53:23;;;;;;;0.80;0.80;;;12.30;83.90;;;;;;5071530;28;20028;-68
2024/04/04 04:55:50;;;;;;;0.68;0.68;;;12.30;83.90;;;;;;5069723;28;20056;-68
2024/04/04 04:58:18;;;;;;;1.63;1.08;;;12.30;83.90;;;;;;5068888;28;20392;-69
2024/04/04 05:00:44;;;;;;;0.38;0.38;;;12.30;83.90;;;;;;5076291;28;20025;-69
2024/04/04 05:03:10;;;;;;;1.85;1.38;;;12.30;84.00;;;;;;5071304;28;20134;-70
2024/04/04 05:05:35;;;;;;;1.05;0.90;;;12.40;84.10;;;;;;5069392;28;20524;-69
2024/04/04 05:08:02;;;;;;;2.17;0.63;;;12.40;84.30;;;;;;5066967;28;20025;-70
2024/04/04 05:10:29;;;;;;;1.00;0.90;;;12.40;84.30;;;;;;5064047;28;20086;-69
2024/04/04 05:12:55;;;;;;;1.80;1.13;;;12.50;85.10;;;;;;5069050;28;20044;-69
2024/04/04 05:15:21;;;;;;;1.35;0.65;;;12.50;85.30;;;;;;5048047;28;20085;-69
2024/04/04 05:17:47;;;;;;;0.50;0.50;;;12.50;85.70;;;;;;5067171;28;20046;-70
2024/04/04 05:20:13;;;;;;;2.53;1.05;;;12.50;85.60;;;;;;5065260;28;20473;-69
2024/04/04 05:22:41;;;;;;;2.05;0.77;;;12.60;85.90;;;;;;5070168;28;20032;-70
2024/04/04 05:25:07;;;;;;;4.25;1.10;;;12.60;86.10;;;;;;5072319;28;20475;-69
2024/04/04 05:27:33;;;;;;;2.30;1.00;;;12.60;86.60;;;;;;5072646;28;20040;-69
2024/04/04 05:30:15;;;;;;;6.50;1.70;;;12.60;86.60;;;;;;5066498;28;20039;-70
2024/04/04 05:32:41;;;;;;;1.40;0.70;;;12.70;86.80;;;;;;5070030;28;20033;-70
2024/04/04 05:35:08;;;;;;;1.60;0.60;;;12.70;87.00;;;;;;5064795;28;20433;-67
2024/04/04 05:37:35;;;;;;;0.93;0.60;;;12.70;86.90;;;;;;5072935;28;20059;-67
2024/04/04 05:40:00;;;;;;;1.10;0.77;;;12.70;86.90;;;;;;5063154;28;20017;-68
2024/04/04 05:42:30;;;;;;;1.65;1.55;;;12.80;87.00;;;;;;5056602;28;20034;-68
2024/04/04 05:44:56;;;;;;;1.17;0.88;;;12.80;87.00;;;;;;5072838;28;20085;-68
2024/04/04 05:47:22;;;;;;;3.63;0.70;;;12.80;87.10;;;;;;5072670;28;20024;-68
2024/04/04 05:49:47;;;;;;;2.83;1.17;;;12.80;87.00;;;;;;5070899;28;20036;-68
2024/04/04 05:52:13;;;;;;;1.20;1.10;;;12.80;87.20;;;;;;5077838;28;20414;-67
2024/04/04 05:54:39;;;;;;;1.52;1.33;;;12.90;87.20;;;;;;5051450;28;20361;-68
2024/04/04 05:57:05;;;;;;;4.50;1.27;;;12.90;87.20;;;;;;5070257;28;20056;-67
2024/04/04 05:59:32;;;;;;;0.95;0.60;;;12.90;87.20;;;;;;5060811;28;20023;-67
2024/04/04 06:01:58;;;;;;;0.30;0.30;;;13.00;87.20;;;;;;5072585;28;20031;-68
2024/04/04 06:04:25;;;;;;;1.90;0.85;;;13.00;87.00;;;;;;5061196;28;20036;-67
2024/04/04 06:06:50;;;;;;;0.52;0.52;;;13.00;87.00;;;;;;5065149;28;20797;-67
2024/04/04 06:09:16;;;;;;;0.90;0.60;;;13.10;87.10;;;;;;5046645;28;20031;-67
2024/04/04 06:11:42;;;;;;;1.33;0.77;;;13.10;87.00;;;;;;5067966;28;20049;-67
2024/04/04 06:14:07;;;;;;;4.72;0.70;;;13.10;86.90;;;;;;5070620;28;20032;-67
2024/04/04 06:16:34;;;;;;;2.05;0.90;;;13.10;86.90;;;;;;5063275;28;20036;-67
2024/04/04 06:19:00;;;;;;;3.50;0.90;;;13.10;87.00;;;;;;5068640;28;20064;-67
2024/04/04 06:21:25;;;;;;;2.38;1.10;;;13.10;87.10;;;;;;5066180;28;20059;-67
2024/04/04 06:23:51;;;;;;;4.13;1.40;;;13.20;87.20;;;;;;5064337;28;20039;-68
2024/04/04 06:26:16;;;;;;;3.92;1.55;;;13.20;87.30;;;;;;5064251;28;20036;-63
2024/04/04 06:28:44;;;;;;;0.80;0.52;;;13.20;87.50;;;;;;5066186;28;20476;-63
2024/04/04 06:31:10;;;;;;;4.53;1.10;;;13.20;87.70;;;;;;5066726;28;20471;-63
2024/04/04 06:33:37;;;;;;;1.70;0.75;;;13.20;87.70;;;;;;5065380;28;20501;-64
2024/04/04 06:36:03;;;;;;;3.45;0.77;;;13.30;87.70;;;;;;5067164;28;20690;-67
2024/04/04 06:38:29;;;;;;;2.35;1.42;;;13.30;87.80;;;;;;5073699;28;20027;-67
2024/04/04 06:40:55;;;;;;;2.17;1.35;;;13.30;88.00;;;;;;5071260;28;20029;-68
2024/04/04 06:43:20;;;;;;;2.45;1.10;;;13.30;88.20;;;;;;5076123;28;20025;-63
2024/04/04 06:45:46;;;;;;;4.32;0.70;;;13.30;88.30;;;;;;5069583;28;20489;-63
2024/04/04 06:48:12;;;;;;;5.15;0.85;;;13.30;88.20;;;;;;5072254;28;20032;-63
2024/04/04 06:50:37;;;;;;;2.35;0.70;;;13.30;88.40;;;;;;5068425;28;20395;-63
2024/04/04 06:53:03;;;;;;;1.13;0.80;;;13.40;89.10;;;;;;5071618;28;20376;-63
2024/04/04 06:55:30;;;;;;;2.45;0.80;;;13.40;88.80;;;;;;5072540;28;20455;-63
2024/04/04 06:57:56;;;;;;;1.77;0.98;;;13.40;89.00;;;;;;5071207;28;20055;-63
2024/04/04 07:00:21;;;;;;;1.42;0.70;;;13.40;89.10;;;;;;5053611;28;20033;-63
2024/04/04 07:02:47;;;;;;;2.70;0.60;;;13.50;89.10;;;;;;5075069;28;20545;-63
2024/04/04 07:05:13;;;;;;;3.65;0.80;;;13.50;89.20;;;;;;5070587;28;20463;-63
2024/04/04 07:07:38;;;;;;;2.58;0.90;;;13.50;89.20;;;;;;5066939;28;20496;-63
2024/04/04 07:10:05;;;;;;;0.70;0.68;;;13.50;89.10;;;;;;5070183;28;20047;-63
2024/04/04 07:12:31;;;;;;;1.23;0.70;;;13.50;89.00;;;;;;5057409;28;20045;-63
2024/04/04 07:14:56;;;;;;;1.02;0.80;;;13.60;89.10;;;;;;5065045;28;20442;-63
2024/04/04 07:17:23;;;;;;;3.30;1.15;;;13.60;89.10;;;;;;5071694;28;20487;-63
2024/04/04 07:19:57;;;;;;;3.05;1.08;;;13.60;89.20;;;;;;5067690;28;20028;-63
2024/04/04 07:22:24;;;;;;;1.85;0.88;;;13.60;89.40;;;;;;5070453;28;20070;-63
2024/04/04 07:24:50;;;;;;;0.75;0.73;;;13.60;89.40;;;;;;5077648;28;20490;-62
2024/04/04 07:27:16;;;;;;;2.45;0.60;;;13.70;89.50;;;;;;5077663;28;20111;-63
2024/04/04 07:29:42;;;;;;;2.63;0.75;;;13.70;89.50;;;;;;5078161;28;20067;-63
2024/04/04 07:32:09;;;;;;;1.05;0.50;;;13.70;89.40;;;;;;5072262;28;20127;-67
2024/04/04 07:34:35;;;;;;;1.95;0.63;;;13.70;89.60;;;;;;5071328;28;20021;-68
2024/04/04 07:37:01;;;;;;;4.85;1.13;;;13.80;89.60;;;;;;5063424;28;20029;-67
2024/04/04 07:39:27;;;;;;;0.38;0.35;;;13.80;89.50;;;;;;5073420;28;20032;-67
2024/04/04 07:41:53;;;;;;;0.70;0.55;;;13.80;90.00;;;;;;5062087;28;20480;-68
2024/04/04 07:44:19;;;;;;;2.13;0.95;;;13.80;89.40;;;;;;5057783;28;20035;-68
2024/04/04 07:46:44;;;;;;;2.92;0.75;;;13.80;89.60;;;;;;5060191;28;20468;-68
2024/04/04 07:49:10;;;;;;;0.82;0.70;;;13.80;89.80;;;;;;5068248;28;20119;-68
2024/04/04 07:51:36;;;;;;;1.85;0.57;;;13.80;89.90;;;;;;5059403;28;20061;-67
2024/04/04 07:54:03;;;;;;;1.88;0.90;;;13.90;90.00;;;;;;5068934;28;20453;-69
2024/04/04 07:56:28;;;;;;;2.13;0.80;;;13.90;90.00;;;;;;5066273;28;20025;-68
2024/04/04 07:58:54;;;;;;;2.58;0.88;;;13.90;89.90;;;;;;5064789;28;20082;-63
2024/04/04 08:01:21;;;;;;;1.05;0.50;;;13.90;89.90;;;;;;5057998;28;20296;-64
2024/04/04 08:03:48;;;;;;;6.45;0.60;;;13.90;89.80;;;;;;5056678;28;20444;-63
2024/04/04 08:06:14;;;;;;;1.10;1.00;;;14.00;89.80;;;;;;5064164;28;20028;-63
2024/04/04 08:08:42;;;;;;;1.45;0.90;;;14.00;89.80;;;;;;5051655;28;20036;-68
2024/04/04 08:11:11;;;;;;;0.65;0.50;;;14.00;90.10;;;;;;5053557;28;20897;-68
2024/04/04 08:13:37;;;;;;;1.48;1.17;;;14.10;89.70;;;;;;5051486;28;20040;-64
2024/04/04 08:16:04;;;;;;;1.42;0.95;;;14.00;89.70;;;;;;5064829;28;20903;-67
2024/04/04 08:18:29;;;;;;;0.77;0.70;;;14.00;89.70;;;;;;5064497;28;20027;-67
2024/04/04 08:20:55;;;;;;;0.90;0.88;;;14.10;89.60;;;;;;5046182;28;20055;-68
2024/04/04 08:23:21;;;;;;;1.30;1.00;;;14.10;89.50;;;;;;5054302;28;20036;-67
2024/04/04 08:25:54;;;;;;;1.42;0.63;;;14.10;89.50;;;;;;5052939;28;20029;-67
2024/04/04 08:28:20;;;;;;;1.38;0.95;;;14.10;89.60;;;;;;5062650;28;20507;-68
2024/04/04 08:30:47;;;;;;;0.60;0.60;;;14.10;89.60;;;;;;5073374;28;20100;-67
2024/04/04 08:33:13;;;;;;;4.13;0.73;;;14.10;89.60;;;;;;5045243;28;20033;-68
2024/04/04 08:35:39;;;;;;;2.85;0.47;;;14.20;89.60;;;;;;5053336;28;20056;-63
2024/04/04 08:38:04;;;;;;;3.15;0.57;;;14.10;89.50;;;;;;5062614;28;20061;-63
2024/04/04 08:40:31;;;;;;;0.75;0.40;;;14.10;89.50;;;;;;5051448;28;20488;-67
2024/04/04 08:42:57;;;;;;;0.80;0.50;;;14.10;89.60;;;;;;5059577;28;20117;-67
2024/04/04 08:45:31;;;;;;;1.20;0.65;;;14.10;89.50;;;;;;5064584;28;20029;-63
2024/04/04 08:48:00;;;;;;;1.42;0.32;;;14.10;89.50;;;;;;5065142;28;20180;-63
2024/04/04 08:50:26;;;;;;;1.45;0.70;;;14.20;89.50;;;;;;5063510;28;20592;-63
2024/04/04 08:52:52;;;;;;;2.65;0.55;;;14.20;89.40;;;;;;5061914;28;20112;-63
2024/04/04 08:55:18;;;;;;;2.95;0.43;;;14.20;89.20;;;;;;5065002;28;20036;-67
2024/04/04 08:57:44;;;;;;;0.60;0.60;;;14.20;89.10;;;;;;5065464;28;20526;-68
2024/04/04 09:00:11;;;;;;;0.50;0.50;;;14.20;89.20;;;;;;5071088;28;20164;-63
2024/04/04 09:02:38;;;;;;;1.70;0.68;;;14.20;89.30;;;;;;5061119;28;20530;-63
2024/04/04 09:05:07;;;;;;;2.90;0.85;;;14.20;89.20;;;;;;5032538;28;20056;-63
2024/04/04 09:07:37;;;;;;;2.88;0.60;;;14.20;89.20;;;;;;5048208;28;20032;-63
2024/04/04 09:10:03;;;;;;;0.88;0.80;;;14.20;89.20;;;;;;5054178;28;20084;-63
2024/04/04 09:12:30;;;;;;;2.33;0.73;;;14.20;89.20;;;;;;5065360;28;20052;-63
2024/04/04 09:14:59;;;;;;;0.75;0.75;;;14.20;89.20;;;;;;5053961;28;20028;-63
2024/04/04 09:17:26;;;;;;;7.32;1.48;;;14.20;89.20;;;;;;5059315;28;20051;-63
2024/04/04 09:19:55;;;;;;;2.53;1.17;;;14.20;89.20;;;;;;5056711;28;20024;-67
2024/04/04 09:22:22;;;;;;;0.60;0.60;;;14.20;89.20;;;;;;5067603;28;20115;-68
2024/04/04 09:24:48;;;;;;;2.47;1.27;;;14.20;89.30;;;;;;5054516;28;20621;-68
2024/04/04 09:27:20;;;;;;;0.80;0.52;;;14.20;89.40;;;;;;5063150;28;20348;-67
2024/04/04 09:29:46;;;;;;;1.20;0.60;;;14.20;89.30;;;;;;5055647;28;20039;-68
2024/04/04 09:32:18;;;;;;;2.40;0.60;;;14.20;89.40;;;;;;5064146;28;20423;-68
2024/04/04 09:34:45;;;;;;;0.73;0.70;;;14.20;89.50;;;;;;5052826;28;20115;-68
2024/04/04 09:37:13;;;;;;;2.25;1.02;;;14.20;89.60;;;;;;5060105;28;20024;-68
2024/04/04 09:39:40;;;;;;;3.13;0.65;;;14.20;89.60;;;;;;5063954;28;20074;-68
2024/04/04 09:42:08;;;;;;;1.73;0.93;;;14.30;89.50;;;;;;5064494;28;20379;-68
2024/04/04 09:44:33;;;;;;;1.88;0.80;;;14.40;89.30;;;;;;5047627;28;20128;-68
2024/04/04 09:47:03;;;;;;;1.15;0.68;;;14.40;89.10;;;;;;5056970;28;20118;-68
2024/04/04 09:49:30;;;;;;;2.05;0.85;;;14.50;89.10;;;;;;5053870;28;20021;-68
2024/04/04 09:51:58;;;;;;;1.92;1.13;;;14.60;89.10;;;;;;5055170;28;20028;-68
2024/04/04 09:54:24;;;;;;;1.35;1.05;;;14.70;88.90;;;;;;5067487;28;20117;-68
2024/04/04 09:56:51;;;;;;;3.63;0.88;;;14.80;88.80;;;;;;5053972;28;20016;-67
2024/04/04 09:59:28;;;;;;;4.13;0.70;;;14.90;88.50;;;;;;5062326;28;20533;-68
2024/04/04 10:02:01;;;;;;;2.25;0.60;;;14.90;88.80;;;;;;5062258;28;20024;-67
2024/04/04 10:04:37;;;;;;;0.43;0.43;;;14.90;88.10;;;;;;5071847;28;20025;-63
2024/04/04 10:07:04;;;;;;;0.65;0.50;;;14.90;88.00;;;;;;5056995;28;20531;-63
2024/04/04 10:09:41;;;;;;;0.85;0.60;;;14.80;88.10;;;;;;5058365;28;20029;-63
2024/04/04 10:12:13;;;;;;;0.60;0.60;;;14.80;88.20;;;;;;5047641;28;20044;-63
2024/04/04 10:14:55;;;;;;;0.98;0.70;;;14.70;88.30;;;;;;5076641;28;20024;-67
2024/04/04 10:17:21;;;;;;;2.92;0.85;;;14.70;88.20;;;;;;5061577;28;20778;-68
2024/04/04 10:19:48;;;;;;;3.03;1.00;;;14.60;88.30;;;;;;5057331;28;20025;-67
2024/04/04 10:22:17;;;;;;;1.27;0.68;;;14.50;88.50;;;;;;5041821;28;20048;-63
2024/04/04 10:24:43;;;;;;;0.82;0.80;;;14.40;88.40;;;;;;5053741;28;20082;-68
2024/04/04 10:27:12;;;;;;;0.90;0.70;;;14.30;87.90;;;;;;5060301;28;20427;-68
2024/04/04 10:29:41;;;;;;;2.70;0.75;;;14.20;87.80;;;;;;5068415;28;20166;-68
2024/04/04 10:32:08;;;;;;;2.78;0.70;;;14.40;87.70;;;;;;5056962;28;20035;-68
2024/04/04 10:34:34;;;;;;;1.05;0.82;;;14.50;87.30;;;;;;5058971;28;20605;-68
2024/04/04 10:37:00;;;;;;;2.30;1.33;;;14.70;86.70;;;;;;5058179;28;20069;-67
2024/04/04 10:39:27;;;;;;;0.47;0.40;;;14.90;86.20;;;;;;5059512;28;20118;-68
2024/04/04 10:41:56;;;;;;;2.28;1.75;;;15.10;85.90;;;;;;5045750;28;20953;-69
2024/04/04 10:44:22;;;;;;;0.47;0.47;;;15.20;84.60;;;;;;5056990;28;20056;-68
2024/04/04 10:46:49;;;;;;;1.65;0.60;;;15.30;84.30;;;;;;5062413;28;20388;-68
2024/04/04 10:49:27;;;;;;;1.23;0.75;;;15.40;84.40;;;;;;5062627;28;20032;-63
2024/04/04 10:51:59;;;;;;;3.50;0.57;;;15.40;84.40;;;;;;5063843;28;20537;-63
2024/04/04 10:54:26;;;;;;;0.88;0.68;;;15.40;84.10;;;;;;5063930;28;20021;-63
2024/04/04 10:56:51;;;;;;;0.70;0.70;;;15.40;83.70;;;;;;5069509;28;20029;-63
2024/04/04 10:59:19;;;;;;;2.28;1.60;;;15.50;83.70;;;;;;5066214;28;20040;-67
2024/04/04 11:01:50;;;;;;;1.98;0.88;;;15.50;83.30;;;;;;5061652;28;20033;-68
2024/04/04 11:04:20;;;;;;;1.20;1.02;;;15.70;83.00;;;;;;5066393;28;20463;-68
2024/04/04 11:06:48;;;;;;;1.02;0.70;;;15.80;82.60;;;;;;5079909;28;20470;-68
2024/04/04 11:09:19;;;;;;;6.03;1.00;;;16.00;82.70;;;;;;5060772;28;20077;-68
2024/04/04 11:11:48;;;;;;;0.55;0.30;;;16.20;80.50;;;;;;5064243;28;20055;-67
2024/04/04 11:14:14;;;;;;;1.05;0.85;;;16.20;78.60;;;;;;5068843;28;20128;-67
2024/04/04 11:16:41;;;;;;;1.40;0.50;;;16.30;79.10;;;;;;5066459;28;20500;-69
2024/04/04 11:19:08;;;;;;;0.52;0.50;;;16.30;77.40;;;;;;5066894;28;20475;-69
2024/04/04 11:21:35;;;;;;;1.85;0.95;;;16.30;77.60;;;;;;5064912;28;20024;-68
2024/04/04 11:24:01;;;;;;;0.30;0.30;;;16.40;77.40;;;;;;5060760;28;20033;-69
2024/04/04 11:26:26;;;;;;;0.40;0.30;;;16.30;76.50;;;;;;5058286;28;20559;-69
2024/04/04 11:28:52;;;;;;;1.83;0.45;;;16.30;75.80;;;;;;5059410;28;20025;-68
2024/04/04 11:31:18;;;;;;;0.98;0.85;;;16.30;76.00;;;;;;5067288;28;20399;-68
2024/04/04 11:33:43;;;;;;;0.38;0.25;;;16.30;75.60;;;;;;5067857;28;20596;-68
2024/04/04 11:36:09;;;;;;;3.50;0.77;;;16.50;74.60;;;;;;5077546;28;20464;-63
2024/04/04 11:38:35;;;;;;;3.55;1.50;;;16.60;72.50;;;;;;5070332;28;20021;-63
2024/04/04 11:41:00;;;;;;;0.57;0.57;;;16.70;69.80;;;;;;5066680;28;20025;-63
2024/04/04 11:43:26;;;;;;;2.40;0.40;;;16.70;69.60;;;;;;5066955;28;20040;-68
2024/04/04 11:45:52;;;;;;;0.75;0.73;;;16.60;68.30;;;;;;5070820;28;20097;-68
2024/04/04 11:48:18;;;;;;;0.50;0.40;;;16.60;69.20;;;;;;5065465;28;20063;-68
2024/04/04 11:50:47;;;;;;;1.88;0.75;;;16.50;68.90;;;;;;5060028;28;20037;-68
2024/04/04 11:53:13;;;;;;;0.93;0.50;;;16.60;70.00;;;;;;5048895;28;20032;-63
2024/04/04 11:55:42;;;;;;;2.40;0.70;;;16.70;69.10;;;;;;5067962;28;20029;-63
2024/04/04 11:58:12;;;;;;;1.38;0.82;;;16.80;68.30;;;;;;5067964;28;20349;-63
2024/04/04 12:00:37;;;;;;;3.45;1.20;;;16.80;68.10;;;;;;5057733;28;20044;-69
2024/04/04 12:03:03;;;;;;;4.03;1.05;;;16.80;67.90;;;;;;5052507;28;20048;-68
2024/04/04 12:05:31;;;;;;;0.95;0.47;;;16.90;68.40;;;;;;5066580;28;20028;-69
2024/04/04 12:07:57;;;;;;;8.88;1.15;;;16.90;67.80;;;;;;5053583;28;20035;-68
2024/04/04 12:10:23;;;;;;;7.95;0.73;;;16.90;67.40;;;;;;5056451;28;20070;-69
2024/04/04 12:12:49;;;;;;;2.35;0.93;;;17.10;67.10;;;;;;5064753;28;20098;-69
2024/04/04 12:15:14;;;;;;;1.08;0.40;;;17.20;66.30;;;;;;5056193;28;20141;-69
2024/04/04 12:17:42;;;;;;;3.13;0.85;;;17.20;66.40;;;;;;5058084;28;20043;-69
2024/04/04 12:20:09;;;;;;;1.95;0.50;;;17.50;65.50;;;;;;5054547;28;20027;-67
2024/04/04 12:22:38;;;;;;;1.42;0.75;;;17.50;64.70;;;;;;5061544;28;20033;-68
2024/04/04 12:25:04;;;;;;;0.73;0.60;;;17.50;65.20;;;;;;5054545;28;20368;-68
2024/04/04 12:27:31;;;;;;;0.40;0.40;;;17.40;65.20;;;;;;5059186;28;20040;-68
2024/04/04 12:29:56;;;;;;;3.28;1.05;;;17.50;65.70;;;;;;5056927;28;20047;-68
2024/04/04 12:32:22;;;;;;;2.58;0.47;;;17.60;65.40;;;;;;5054857;28;20036;-69
2024/04/04 12:34:47;;;;;;;3.55;0.80;;;17.70;64.80;;;;;;5057749;28;20379;-68
2024/04/04 12:37:13;;;;;;;3.97;1.85;;;17.80;63.70;;;;;;5066930;28;20482;-69
2024/04/04 12:39:39;;;;;;;2.42;0.63;;;17.90;63.40;;;;;;5046627;28;20047;-68
2024/04/04 12:42:05;;;;;;;1.15;0.60;;;17.90;63.30;;;;;;5051361;28;20543;-63
2024/04/04 12:44:31;;;;;;;8.40;1.02;;;17.90;62.90;;;;;;5043842;28;20107;-63